sensor_id;sensor_type;location;lat;lon;timestamp;P1;durP1;ratioP1;P2;durP2;ratioP2
20080;SDS011;10200;49.232;9.222;2023-02-08T00:02:17;22.73;;;12.80;;
20080;SDS011;10200;49.232;9.222;2023-02-08T00:04:43;18.77;;;11.37;;
20080;SDS011;10200;49.232;9.222;2023-02-08T00:07:08;17.40;;;10.93;;
20080;SDS011;10200;49.232;9.222;2023-02-08T00:09:34;21.23;;;11.70;;
20080;SDS011;10200;49.232;9.222;2023-02-08T00:11:59;18.73;;;11.63;;
20080;SDS011;10200;49.232;9.222;2023-02-08T00:14:25;23.57;;;12.30;;
20080;SDS011;10200;49.232;9.222;2023-02-08T00:16:50;23.13;;;12.50;;
20080;SDS011;10200;49.232;9.222;2023-02-08T00:19:16;19.03;;;11.17;;
20080;SDS011;10200;49.232;9.222;2023-02-08T00:21:41;16.83;;;10.63;;
20080;SDS011;10200;49.232;9.222;2023-02-08T00:24:07;25.60;;;13.27;;
20080;SDS011;10200;49.232;9.222;2023-02-08T00:26:32;19.07;;;11.17;;
20080;SDS011;10200;49.232;9.222;2023-02-08T00:28:58;19.43;;;10.63;;
20080;SDS011;10200;49.232;9.222;2023-02-08T00:31:24;17.33;;;10.67;;
20080;SDS011;10200;49.232;9.222;2023-02-08T00:33:49;16.73;;;10.73;;
20080;SDS011;10200;49.232;9.222;2023-02-08T00:36:15;18.07;;;10.13;;
20080;SDS011;10200;49.232;9.222;2023-02-08T00:38:40;18.73;;;11.20;;
20080;SDS011;10200;49.232;9.222;2023-02-08T00:41:06;19.30;;;11.03;;
20080;SDS011;10200;49.232;9.222;2023-02-08T00:43:32;18.43;;;9.77;;
20080;SDS011;10200;49.232;9.222;2023-02-08T00:45:58;18.00;;;11.30;;
20080;SDS011;10200;49.232;9.222;2023-02-08T00:48:25;18.83;;;10.77;;
20080;SDS011;10200;49.232;9.222;2023-02-08T00:51:04;18.20;;;10.20;;
20080;SDS011;10200;49.232;9.222;2023-02-08T00:53:36;14.07;;;9.70;;
20080;SDS011;10200;49.232;9.222;2023-02-08T00:56:03;15.93;;;9.67;;
20080;SDS011;10200;49.232;9.222;2023-02-08T00:58:29;17.77;;;10.00;;
20080;SDS011;10200;49.232;9.222;2023-02-08T01:00:54;16.47;;;10.73;;
20080;SDS011;10200;49.232;9.222;2023-02-08T01:03:21;16.40;;;9.67;;
20080;SDS011;10200;49.232;9.222;2023-02-08T01:05:47;16.53;;;9.80;;
20080;SDS011;10200;49.232;9.222;2023-02-08T01:08:13;19.93;;;10.63;;
20080;SDS011;10200;49.232;9.222;2023-02-08T01:10:39;22.77;;;9.87;;
20080;SDS011;10200;49.232;9.222;2023-02-08T01:13:05;20.93;;;9.47;;
20080;SDS011;10200;49.232;9.222;2023-02-08T01:15:30;17.70;;;10.37;;
20080;SDS011;10200;49.232;9.222;2023-02-08T01:17:56;19.40;;;10.43;;
20080;SDS011;10200;49.232;9.222;2023-02-08T01:20:22;22.43;;;10.73;;
20080;SDS011;10200;49.232;9.222;2023-02-08T01:22:48;15.80;;;9.53;;
20080;SDS011;10200;49.232;9.222;2023-02-08T01:25:14;16.20;;;9.37;;
20080;SDS011;10200;49.232;9.222;2023-02-08T01:27:39;14.63;;;9.93;;
20080;SDS011;10200;49.232;9.222;2023-02-08T01:30:05;21.27;;;9.87;;
20080;SDS011;10200;49.232;9.222;2023-02-08T01:32:31;20.27;;;9.50;;
20080;SDS011;10200;49.232;9.222;2023-02-08T01:34:57;19.97;;;9.87;;
20080;SDS011;10200;49.232;9.222;2023-02-08T01:37:22;17.27;;;9.17;;
20080;SDS011;10200;49.232;9.222;2023-02-08T01:39:48;18.60;;;9.70;;
20080;SDS011;10200;49.232;9.222;2023-02-08T01:42:14;15.27;;;8.97;;
20080;SDS011;10200;49.232;9.222;2023-02-08T01:47:48;17.10;;;10.77;;
20080;SDS011;10200;49.232;9.222;2023-02-08T01:50:18;19.47;;;10.30;;
20080;SDS011;10200;49.232;9.222;2023-02-08T01:52:47;15.17;;;10.07;;
20080;SDS011;10200;49.232;9.222;2023-02-08T01:55:15;19.03;;;10.40;;
20080;SDS011;10200;49.232;9.222;2023-02-08T01:57:52;23.40;;;11.63;;
20080;SDS011;10200;49.232;9.222;2023-02-08T02:00:20;23.53;;;11.03;;
20080;SDS011;10200;49.232;9.222;2023-02-08T02:02:47;20.53;;;10.47;;
20080;SDS011;10200;49.232;9.222;2023-02-08T02:05:18;19.97;;;10.53;;
20080;SDS011;10200;49.232;9.222;2023-02-08T02:07:48;19.73;;;11.13;;
20080;SDS011;10200;49.232;9.222;2023-02-08T02:10:23;17.13;;;10.67;;
20080;SDS011;10200;49.232;9.222;2023-02-08T02:12:52;17.63;;;10.30;;
20080;SDS011;10200;49.232;9.222;2023-02-08T02:15:20;16.40;;;10.50;;
20080;SDS011;10200;49.232;9.222;2023-02-08T02:17:46;17.67;;;10.33;;
20080;SDS011;10200;49.232;9.222;2023-02-08T02:20:23;18.83;;;11.60;;
20080;SDS011;10200;49.232;9.222;2023-02-08T02:34:14;14.97;;;9.77;;
20080;SDS011;10200;49.232;9.222;2023-02-08T02:36:51;17.50;;;10.07;;
20080;SDS011;10200;49.232;9.222;2023-02-08T02:39:27;18.77;;;10.70;;
20080;SDS011;10200;49.232;9.222;2023-02-08T02:42:00;19.23;;;10.27;;
20080;SDS011;10200;49.232;9.222;2023-02-08T02:47:54;17.63;;;10.53;;
20080;SDS011;10200;49.232;9.222;2023-02-08T02:50:39;16.40;;;10.23;;
20080;SDS011;10200;49.232;9.222;2023-02-08T02:53:14;21.47;;;10.90;;
20080;SDS011;10200;49.232;9.222;2023-02-08T02:55:58;16.43;;;10.17;;
20080;SDS011;10200;49.232;9.222;2023-02-08T02:58:30;16.00;;;9.60;;
20080;SDS011;10200;49.232;9.222;2023-02-08T03:00:57;17.13;;;9.97;;
20080;SDS011;10200;49.232;9.222;2023-02-08T03:03:27;16.43;;;10.50;;
20080;SDS011;10200;49.232;9.222;2023-02-08T03:05:58;17.17;;;9.73;;
20080;SDS011;10200;49.232;9.222;2023-02-08T03:11:10;19.67;;;9.87;;
20080;SDS011;10200;49.232;9.222;2023-02-08T03:24:30;13.90;;;8.27;;
20080;SDS011;10200;49.232;9.222;2023-02-08T03:33:02;14.50;;;8.50;;
20080;SDS011;10200;49.232;9.222;2023-02-08T03:35:43;16.50;;;9.63;;
20080;SDS011;10200;49.232;9.222;2023-02-08T03:38:36;15.30;;;9.43;;
20080;SDS011;10200;49.232;9.222;2023-02-08T03:41:06;16.17;;;8.90;;
20080;SDS011;10200;49.232;9.222;2023-02-08T03:43:40;15.77;;;8.77;;
20080;SDS011;10200;49.232;9.222;2023-02-08T03:46:12;15.10;;;8.97;;
20080;SDS011;10200;49.232;9.222;2023-02-08T03:48:45;14.50;;;8.93;;
20080;SDS011;10200;49.232;9.222;2023-02-08T03:51:16;14.60;;;8.97;;
20080;SDS011;10200;49.232;9.222;2023-02-08T03:53:44;17.47;;;10.13;;
20080;SDS011;10200;49.232;9.222;2023-02-08T03:56:16;15.33;;;9.07;;
20080;SDS011;10200;49.232;9.222;2023-02-08T03:58:53;15.97;;;8.73;;
20080;SDS011;10200;49.232;9.222;2023-02-08T04:01:28;15.50;;;8.03;;
20080;SDS011;10200;49.232;9.222;2023-02-08T04:03:57;12.47;;;8.43;;
20080;SDS011;10200;49.232;9.222;2023-02-08T04:06:24;15.57;;;9.60;;
20080;SDS011;10200;49.232;9.222;2023-02-08T04:08:50;16.37;;;9.57;;
20080;SDS011;10200;49.232;9.222;2023-02-08T04:11:15;17.53;;;10.07;;
20080;SDS011;10200;49.232;9.222;2023-02-08T04:13:41;15.50;;;8.70;;
20080;SDS011;10200;49.232;9.222;2023-02-08T04:16:08;18.73;;;9.20;;
20080;SDS011;10200;49.232;9.222;2023-02-08T04:18:36;15.23;;;9.33;;
20080;SDS011;10200;49.232;9.222;2023-02-08T04:21:01;16.87;;;8.67;;
20080;SDS011;10200;49.232;9.222;2023-02-08T04:23:27;12.50;;;8.83;;
20080;SDS011;10200;49.232;9.222;2023-02-08T04:25:53;16.67;;;9.57;;
20080;SDS011;10200;49.232;9.222;2023-02-08T04:28:19;17.60;;;9.83;;
20080;SDS011;10200;49.232;9.222;2023-02-08T04:30:44;19.23;;;10.20;;
20080;SDS011;10200;49.232;9.222;2023-02-08T04:33:10;19.83;;;9.63;;
20080;SDS011;10200;49.232;9.222;2023-02-08T04:35:37;19.80;;;10.07;;
20080;SDS011;10200;49.232;9.222;2023-02-08T04:38:02;14.23;;;8.70;;
20080;SDS011;10200;49.232;9.222;2023-02-08T04:40:28;16.37;;;9.57;;
20080;SDS011;10200;49.232;9.222;2023-02-08T04:42:55;17.03;;;10.03;;
20080;SDS011;10200;49.232;9.222;2023-02-08T04:45:20;20.13;;;10.07;;
20080;SDS011;10200;49.232;9.222;2023-02-08T04:47:46;16.43;;;10.60;;
20080;SDS011;10200;49.232;9.222;2023-02-08T04:50:11;20.10;;;10.97;;
20080;SDS011;10200;49.232;9.222;2023-02-08T04:52:37;18.67;;;9.97;;
20080;SDS011;10200;49.232;9.222;2023-02-08T04:55:02;20.13;;;9.87;;
20080;SDS011;10200;49.232;9.222;2023-02-08T04:57:28;21.37;;;10.40;;
20080;SDS011;10200;49.232;9.222;2023-02-08T04:59:54;16.57;;;9.60;;
20080;SDS011;10200;49.232;9.222;2023-02-08T05:02:19;16.50;;;9.70;;
20080;SDS011;10200;49.232;9.222;2023-02-08T05:04:45;18.43;;;10.30;;
20080;SDS011;10200;49.232;9.222;2023-02-08T05:07:10;15.67;;;8.97;;
20080;SDS011;10200;49.232;9.222;2023-02-08T05:09:36;17.80;;;9.67;;
20080;SDS011;10200;49.232;9.222;2023-02-08T05:12:02;17.53;;;9.90;;
20080;SDS011;10200;49.232;9.222;2023-02-08T05:14:27;15.97;;;9.17;;
20080;SDS011;10200;49.232;9.222;2023-02-08T05:16:53;12.63;;;8.77;;
20080;SDS011;10200;49.232;9.222;2023-02-08T05:19:18;17.17;;;10.37;;
20080;SDS011;10200;49.232;9.222;2023-02-08T05:21:44;20.63;;;10.80;;
20080;SDS011;10200;49.232;9.222;2023-02-08T05:24:09;14.10;;;9.13;;
20080;SDS011;10200;49.232;9.222;2023-02-08T05:26:36;13.60;;;8.13;;
20080;SDS011;10200;49.232;9.222;2023-02-08T05:29:02;17.37;;;9.87;;
20080;SDS011;10200;49.232;9.222;2023-02-08T05:31:28;17.70;;;10.07;;
20080;SDS011;10200;49.232;9.222;2023-02-08T05:33:54;19.87;;;10.53;;
20080;SDS011;10200;49.232;9.222;2023-02-08T05:36:19;16.53;;;9.77;;
20080;SDS011;10200;49.232;9.222;2023-02-08T05:38:47;20.20;;;10.80;;
20080;SDS011;10200;49.232;9.222;2023-02-08T05:41:13;16.13;;;9.10;;
20080;SDS011;10200;49.232;9.222;2023-02-08T05:43:39;20.10;;;9.93;;
20080;SDS011;10200;49.232;9.222;2023-02-08T05:46:04;25.83;;;10.63;;
20080;SDS011;10200;49.232;9.222;2023-02-08T05:48:30;17.60;;;9.90;;
20080;SDS011;10200;49.232;9.222;2023-02-08T05:50:56;17.87;;;10.47;;
20080;SDS011;10200;49.232;9.222;2023-02-08T05:53:21;16.47;;;9.47;;
20080;SDS011;10200;49.232;9.222;2023-02-08T05:55:47;17.50;;;9.30;;
20080;SDS011;10200;49.232;9.222;2023-02-08T05:58:13;17.77;;;9.53;;
20080;SDS011;10200;49.232;9.222;2023-02-08T06:00:39;17.40;;;10.17;;
20080;SDS011;10200;49.232;9.222;2023-02-08T06:03:05;20.57;;;9.53;;
20080;SDS011;10200;49.232;9.222;2023-02-08T06:05:30;20.10;;;9.67;;
20080;SDS011;10200;49.232;9.222;2023-02-08T06:07:56;16.17;;;9.27;;
20080;SDS011;10200;49.232;9.222;2023-02-08T06:10:22;20.00;;;10.80;;
20080;SDS011;10200;49.232;9.222;2023-02-08T06:12:47;18.77;;;10.40;;
20080;SDS011;10200;49.232;9.222;2023-02-08T06:15:13;18.47;;;11.07;;
20080;SDS011;10200;49.232;9.222;2023-02-08T06:17:39;17.37;;;9.87;;
20080;SDS011;10200;49.232;9.222;2023-02-08T06:20:04;17.67;;;10.03;;
20080;SDS011;10200;49.232;9.222;2023-02-08T06:22:30;17.37;;;9.93;;
20080;SDS011;10200;49.232;9.222;2023-02-08T06:24:58;20.50;;;10.83;;
20080;SDS011;10200;49.232;9.222;2023-02-08T06:27:24;17.23;;;10.97;;
20080;SDS011;10200;49.232;9.222;2023-02-08T06:29:49;24.33;;;11.93;;
20080;SDS011;10200;49.232;9.222;2023-02-08T06:32:15;23.27;;;12.00;;
20080;SDS011;10200;49.232;9.222;2023-02-08T06:34:41;19.50;;;11.27;;
20080;SDS011;10200;49.232;9.222;2023-02-08T06:37:06;20.93;;;11.60;;
20080;SDS011;10200;49.232;9.222;2023-02-08T06:39:32;23.97;;;11.63;;
20080;SDS011;10200;49.232;9.222;2023-02-08T06:41:58;25.00;;;12.13;;
20080;SDS011;10200;49.232;9.222;2023-02-08T06:44:23;25.87;;;11.33;;
20080;SDS011;10200;49.232;9.222;2023-02-08T06:46:49;19.63;;;11.20;;
20080;SDS011;10200;49.232;9.222;2023-02-08T06:49:14;19.73;;;11.07;;
20080;SDS011;10200;49.232;9.222;2023-02-08T06:51:40;22.10;;;11.60;;
20080;SDS011;10200;49.232;9.222;2023-02-08T06:54:06;18.00;;;11.07;;
20080;SDS011;10200;49.232;9.222;2023-02-08T06:56:31;17.80;;;10.77;;
20080;SDS011;10200;49.232;9.222;2023-02-08T06:58:57;18.87;;;10.40;;
20080;SDS011;10200;49.232;9.222;2023-02-08T07:01:23;24.67;;;10.27;;
20080;SDS011;10200;49.232;9.222;2023-02-08T07:03:49;19.37;;;10.73;;
20080;SDS011;10200;49.232;9.222;2023-02-08T07:06:15;18.73;;;10.20;;
20080;SDS011;10200;49.232;9.222;2023-02-08T07:08:42;19.67;;;11.40;;
20080;SDS011;10200;49.232;9.222;2023-02-08T07:11:09;21.07;;;11.47;;
20080;SDS011;10200;49.232;9.222;2023-02-08T07:13:36;19.07;;;11.03;;
20080;SDS011;10200;49.232;9.222;2023-02-08T07:16:03;16.70;;;9.57;;
20080;SDS011;10200;49.232;9.222;2023-02-08T07:18:29;15.40;;;9.70;;
20080;SDS011;10200;49.232;9.222;2023-02-08T07:20:55;17.73;;;11.13;;
20080;SDS011;10200;49.232;9.222;2023-02-08T07:23:20;18.87;;;11.20;;
20080;SDS011;10200;49.232;9.222;2023-02-08T07:25:55;20.27;;;10.57;;
20080;SDS011;10200;49.232;9.222;2023-02-08T07:28:25;24.73;;;10.20;;
20080;SDS011;10200;49.232;9.222;2023-02-08T07:30:51;18.47;;;10.23;;
20080;SDS011;10200;49.232;9.222;2023-02-08T07:33:17;14.83;;;8.97;;
20080;SDS011;10200;49.232;9.222;2023-02-08T07:35:43;16.07;;;10.13;;
20080;SDS011;10200;49.232;9.222;2023-02-08T07:38:08;17.13;;;10.23;;
20080;SDS011;10200;49.232;9.222;2023-02-08T07:40:34;18.10;;;10.07;;
20080;SDS011;10200;49.232;9.222;2023-02-08T07:43:00;17.80;;;9.93;;
20080;SDS011;10200;49.232;9.222;2023-02-08T07:45:25;18.77;;;11.13;;
20080;SDS011;10200;49.232;9.222;2023-02-08T07:47:51;17.57;;;9.13;;
20080;SDS011;10200;49.232;9.222;2023-02-08T07:50:17;19.57;;;10.80;;
20080;SDS011;10200;49.232;9.222;2023-02-08T07:52:42;15.77;;;9.30;;
20080;SDS011;10200;49.232;9.222;2023-02-08T07:55:10;18.33;;;9.70;;
20080;SDS011;10200;49.232;9.222;2023-02-08T07:57:41;20.20;;;10.60;;
20080;SDS011;10200;49.232;9.222;2023-02-08T08:00:07;16.43;;;9.97;;
20080;SDS011;10200;49.232;9.222;2023-02-08T08:02:33;19.33;;;10.43;;
20080;SDS011;10200;49.232;9.222;2023-02-08T08:04:59;20.13;;;11.00;;
20080;SDS011;10200;49.232;9.222;2023-02-08T08:07:24;17.40;;;10.20;;
20080;SDS011;10200;49.232;9.222;2023-02-08T08:09:50;19.63;;;11.07;;
20080;SDS011;10200;49.232;9.222;2023-02-08T08:12:15;17.00;;;10.23;;
20080;SDS011;10200;49.232;9.222;2023-02-08T08:14:41;20.30;;;11.43;;
20080;SDS011;10200;49.232;9.222;2023-02-08T08:17:06;16.40;;;9.57;;
20080;SDS011;10200;49.232;9.222;2023-02-08T08:19:32;19.60;;;10.87;;
20080;SDS011;10200;49.232;9.222;2023-02-08T08:21:57;15.93;;;9.63;;
20080;SDS011;10200;49.232;9.222;2023-02-08T08:24:23;16.40;;;10.23;;
20080;SDS011;10200;49.232;9.222;2023-02-08T08:26:49;21.43;;;10.20;;
20080;SDS011;10200;49.232;9.222;2023-02-08T08:29:14;18.83;;;10.70;;
20080;SDS011;10200;49.232;9.222;2023-02-08T08:31:41;18.10;;;10.07;;
20080;SDS011;10200;49.232;9.222;2023-02-08T08:34:07;13.00;;;9.77;;
20080;SDS011;10200;49.232;9.222;2023-02-08T08:36:33;16.30;;;9.90;;
20080;SDS011;10200;49.232;9.222;2023-02-08T08:38:58;17.53;;;9.43;;
20080;SDS011;10200;49.232;9.222;2023-02-08T08:41:24;16.23;;;9.07;;
20080;SDS011;10200;49.232;9.222;2023-02-08T08:43:51;19.10;;;10.53;;
20080;SDS011;10200;49.232;9.222;2023-02-08T08:46:17;18.30;;;10.87;;
20080;SDS011;10200;49.232;9.222;2023-02-08T08:48:43;18.10;;;10.13;;
20080;SDS011;10200;49.232;9.222;2023-02-08T08:51:09;15.60;;;10.20;;
20080;SDS011;10200;49.232;9.222;2023-02-08T08:53:35;19.53;;;9.60;;
20080;SDS011;10200;49.232;9.222;2023-02-08T08:56:01;18.40;;;10.27;;
20080;SDS011;10200;49.232;9.222;2023-02-08T08:58:27;20.13;;;10.93;;
20080;SDS011;10200;49.232;9.222;2023-02-08T09:00:55;14.30;;;9.40;;
20080;SDS011;10200;49.232;9.222;2023-02-08T09:03:22;21.07;;;11.00;;
20080;SDS011;10200;49.232;9.222;2023-02-08T09:05:48;17.27;;;10.50;;
20080;SDS011;10200;49.232;9.222;2023-02-08T09:08:14;16.43;;;9.97;;
20080;SDS011;10200;49.232;9.222;2023-02-08T09:10:40;18.53;;;9.90;;
20080;SDS011;10200;49.232;9.222;2023-02-08T09:13:05;18.77;;;10.40;;
20080;SDS011;10200;49.232;9.222;2023-02-08T09:15:31;17.40;;;9.13;;
20080;SDS011;10200;49.232;9.222;2023-02-08T09:17:57;18.77;;;9.70;;
20080;SDS011;10200;49.232;9.222;2023-02-08T09:20:22;20.30;;;11.60;;
20080;SDS011;10200;49.232;9.222;2023-02-08T09:22:48;18.73;;;11.20;;
20080;SDS011;10200;49.232;9.222;2023-02-08T09:25:14;14.80;;;10.17;;
20080;SDS011;10200;49.232;9.222;2023-02-08T09:27:40;13.00;;;9.10;;
20080;SDS011;10200;49.232;9.222;2023-02-08T09:30:06;18.73;;;10.00;;
20080;SDS011;10200;49.232;9.222;2023-02-08T09:32:32;19.83;;;9.97;;
20080;SDS011;10200;49.232;9.222;2023-02-08T09:34:58;19.60;;;10.30;;
20080;SDS011;10200;49.232;9.222;2023-02-08T09:37:26;18.63;;;10.63;;
20080;SDS011;10200;49.232;9.222;2023-02-08T09:39:52;19.83;;;11.27;;
20080;SDS011;10200;49.232;9.222;2023-02-08T09:48:12;17.93;;;10.47;;
20080;SDS011;10200;49.232;9.222;2023-02-08T09:50:47;20.47;;;11.37;;
20080;SDS011;10200;49.232;9.222;2023-02-08T09:53:29;18.37;;;10.10;;
20080;SDS011;10200;49.232;9.222;2023-02-08T09:56:14;17.30;;;9.60;;
20080;SDS011;10200;49.232;9.222;2023-02-08T09:58:43;17.03;;;10.03;;
20080;SDS011;10200;49.232;9.222;2023-02-08T10:01:20;19.23;;;9.57;;
20080;SDS011;10200;49.232;9.222;2023-02-08T10:03:49;19.03;;;10.43;;
20080;SDS011;10200;49.232;9.222;2023-02-08T10:06:19;20.83;;;10.63;;
20080;SDS011;10200;49.232;9.222;2023-02-08T10:08:46;17.73;;;10.27;;
20080;SDS011;10200;49.232;9.222;2023-02-08T10:14:04;17.83;;;9.60;;
20080;SDS011;10200;49.232;9.222;2023-02-08T10:27:22;18.37;;;9.50;;
20080;SDS011;10200;49.232;9.222;2023-02-08T10:30:19;16.37;;;10.23;;
20080;SDS011;10200;49.232;9.222;2023-02-08T10:33:00;16.73;;;9.73;;
20080;SDS011;10200;49.232;9.222;2023-02-08T10:35:34;16.10;;;9.20;;
20080;SDS011;10200;49.232;9.222;2023-02-08T10:40:55;18.33;;;9.07;;
20080;SDS011;10200;49.232;9.222;2023-02-08T10:46:09;13.07;;;8.30;;
20080;SDS011;10200;49.232;9.222;2023-02-08T10:51:55;16.30;;;9.53;;
20080;SDS011;10200;49.232;9.222;2023-02-08T10:54:21;13.00;;;7.87;;
20080;SDS011;10200;49.232;9.222;2023-02-08T10:56:51;14.80;;;8.70;;
20080;SDS011;10200;49.232;9.222;2023-02-08T10:59:30;14.70;;;7.80;;
20080;SDS011;10200;49.232;9.222;2023-02-08T11:01:59;12.87;;;8.27;;
20080;SDS011;10200;49.232;9.222;2023-02-08T11:04:25;13.33;;;8.00;;
20080;SDS011;10200;49.232;9.222;2023-02-08T11:06:51;13.47;;;8.17;;
20080;SDS011;10200;49.232;9.222;2023-02-08T11:09:28;11.17;;;7.50;;
20080;SDS011;10200;49.232;9.222;2023-02-08T11:11:55;14.57;;;8.63;;
20080;SDS011;10200;49.232;9.222;2023-02-08T11:14:28;11.90;;;6.97;;
20080;SDS011;10200;49.232;9.222;2023-02-08T11:17:01;14.13;;;8.10;;
20080;SDS011;10200;49.232;9.222;2023-02-08T11:19:32;14.17;;;9.13;;
20080;SDS011;10200;49.232;9.222;2023-02-08T11:22:00;12.37;;;7.57;;
20080;SDS011;10200;49.232;9.222;2023-02-08T11:24:38;14.27;;;7.33;;
20080;SDS011;10200;49.232;9.222;2023-02-08T11:32:40;15.23;;;8.67;;
20080;SDS011;10200;49.232;9.222;2023-02-08T11:35:25;11.13;;;7.47;;
20080;SDS011;10200;49.232;9.222;2023-02-08T11:37:54;11.97;;;7.63;;
20080;SDS011;10200;49.232;9.222;2023-02-08T11:40:22;12.67;;;7.40;;
20080;SDS011;10200;49.232;9.222;2023-02-08T11:42:59;12.60;;;7.77;;
20080;SDS011;10200;49.232;9.222;2023-02-08T11:45:35;13.80;;;6.80;;
20080;SDS011;10200;49.232;9.222;2023-02-08T11:48:01;14.93;;;7.80;;
20080;SDS011;10200;49.232;9.222;2023-02-08T11:52:58;14.47;;;6.97;;
20080;SDS011;10200;49.232;9.222;2023-02-08T11:55:27;12.57;;;7.57;;
20080;SDS011;10200;49.232;9.222;2023-02-08T11:58:02;12.10;;;6.53;;
20080;SDS011;10200;49.232;9.222;2023-02-08T12:00:30;12.40;;;7.63;;
20080;SDS011;10200;49.232;9.222;2023-02-08T12:03:21;12.03;;;7.27;;
20080;SDS011;10200;49.232;9.222;2023-02-08T12:06:03;14.93;;;7.50;;
20080;SDS011;10200;49.232;9.222;2023-02-08T12:09:02;10.70;;;6.53;;
20080;SDS011;10200;49.232;9.222;2023-02-08T12:11:38;12.13;;;6.67;;
20080;SDS011;10200;49.232;9.222;2023-02-08T12:22:31;11.00;;;6.20;;
20080;SDS011;10200;49.232;9.222;2023-02-08T12:25:20;10.37;;;5.90;;
20080;SDS011;10200;49.232;9.222;2023-02-08T12:28:15;8.40;;;5.17;;
20080;SDS011;10200;49.232;9.222;2023-02-08T12:36:37;10.03;;;5.80;;
20080;SDS011;10200;49.232;9.222;2023-02-08T12:39:41;10.90;;;6.03;;
20080;SDS011;10200;49.232;9.222;2023-02-08T12:42:44;10.47;;;5.20;;
20080;SDS011;10200;49.232;9.222;2023-02-08T12:50:58;8.67;;;5.17;;
20080;SDS011;10200;49.232;9.222;2023-02-08T12:53:45;9.93;;;5.90;;
20080;SDS011;10200;49.232;9.222;2023-02-08T12:56:18;11.90;;;5.93;;
20080;SDS011;10200;49.232;9.222;2023-02-08T12:58:49;9.50;;;5.50;;
20080;SDS011;10200;49.232;9.222;2023-02-08T13:01:17;13.00;;;5.50;;
20080;SDS011;10200;49.232;9.222;2023-02-08T13:06:53;9.53;;;5.43;;
20080;SDS011;10200;49.232;9.222;2023-02-08T13:09:34;9.30;;;5.67;;
20080;SDS011;10200;49.232;9.222;2023-02-08T13:12:16;9.40;;;5.20;;
20080;SDS011;10200;49.232;9.222;2023-02-08T13:14:53;8.67;;;4.83;;
20080;SDS011;10200;49.232;9.222;2023-02-08T13:17:33;8.13;;;4.87;;
20080;SDS011;10200;49.232;9.222;2023-02-08T13:20:06;8.87;;;5.10;;
20080;SDS011;10200;49.232;9.222;2023-02-08T13:22:56;12.00;;;5.03;;
20080;SDS011;10200;49.232;9.222;2023-02-08T13:25:30;10.47;;;5.20;;
20080;SDS011;10200;49.232;9.222;2023-02-08T13:28:00;7.10;;;4.40;;
20080;SDS011;10200;49.232;9.222;2023-02-08T13:30:32;7.80;;;5.20;;
20080;SDS011;10200;49.232;9.222;2023-02-08T13:33:21;11.57;;;5.20;;
20080;SDS011;10200;49.232;9.222;2023-02-08T13:35:54;9.07;;;5.07;;
20080;SDS011;10200;49.232;9.222;2023-02-08T13:38:23;6.50;;;4.57;;
20080;SDS011;10200;49.232;9.222;2023-02-08T13:41:05;9.57;;;4.83;;
20080;SDS011;10200;49.232;9.222;2023-02-08T13:44:05;8.13;;;4.13;;
20080;SDS011;10200;49.232;9.222;2023-02-08T13:46:38;8.10;;;4.57;;
20080;SDS011;10200;49.232;9.222;2023-02-08T13:49:38;7.60;;;4.83;;
20080;SDS011;10200;49.232;9.222;2023-02-08T13:52:10;7.77;;;4.33;;
20080;SDS011;10200;49.232;9.222;2023-02-08T13:57:55;7.17;;;4.40;;
20080;SDS011;10200;49.232;9.222;2023-02-08T14:00:26;6.03;;;4.30;;
20080;SDS011;10200;49.232;9.222;2023-02-08T14:11:13;9.53;;;4.70;;
20080;SDS011;10200;49.232;9.222;2023-02-08T14:14:01;7.53;;;4.40;;
20080;SDS011;10200;49.232;9.222;2023-02-08T14:16:40;7.47;;;4.57;;
20080;SDS011;10200;49.232;9.222;2023-02-08T14:21:42;6.23;;;4.27;;
20080;SDS011;10200;49.232;9.222;2023-02-08T14:24:19;5.63;;;3.93;;
20080;SDS011;10200;49.232;9.222;2023-02-08T14:26:46;5.77;;;3.93;;
20080;SDS011;10200;49.232;9.222;2023-02-08T14:29:20;7.87;;;4.57;;
20080;SDS011;10200;49.232;9.222;2023-02-08T14:31:51;7.97;;;4.57;;
20080;SDS011;10200;49.232;9.222;2023-02-08T14:34:21;6.40;;;4.30;;
20080;SDS011;10200;49.232;9.222;2023-02-08T14:37:02;7.80;;;4.70;;
20080;SDS011;10200;49.232;9.222;2023-02-08T14:39:29;8.03;;;4.63;;
20080;SDS011;10200;49.232;9.222;2023-02-08T14:42:01;9.63;;;4.80;;
20080;SDS011;10200;49.232;9.222;2023-02-08T14:47:02;8.40;;;5.13;;
20080;SDS011;10200;49.232;9.222;2023-02-08T14:49:28;8.97;;;4.83;;
20080;SDS011;10200;49.232;9.222;2023-02-08T14:52:08;8.17;;;4.67;;
20080;SDS011;10200;49.232;9.222;2023-02-08T14:54:47;10.17;;;5.90;;
20080;SDS011;10200;49.232;9.222;2023-02-08T14:57:25;9.53;;;5.53;;
20080;SDS011;10200;49.232;9.222;2023-02-08T14:59:59;7.73;;;4.97;;
20080;SDS011;10200;49.232;9.222;2023-02-08T15:02:29;9.47;;;4.90;;
20080;SDS011;10200;49.232;9.222;2023-02-08T15:04:59;10.60;;;5.43;;
20080;SDS011;10200;49.232;9.222;2023-02-08T15:07:41;8.53;;;5.30;;
20080;SDS011;10200;49.232;9.222;2023-02-08T15:10:12;9.57;;;5.47;;
20080;SDS011;10200;49.232;9.222;2023-02-08T15:12:39;8.50;;;5.03;;
20080;SDS011;10200;49.232;9.222;2023-02-08T15:17:55;13.23;;;6.87;;
20080;SDS011;10200;49.232;9.222;2023-02-08T15:20:23;10.23;;;5.87;;
20080;SDS011;10200;49.232;9.222;2023-02-08T15:22:58;9.30;;;5.77;;
20080;SDS011;10200;49.232;9.222;2023-02-08T15:27:57;8.93;;;5.43;;
20080;SDS011;10200;49.232;9.222;2023-02-08T15:30:36;14.73;;;6.17;;
20080;SDS011;10200;49.232;9.222;2023-02-08T15:33:07;12.00;;;6.20;;
20080;SDS011;10200;49.232;9.222;2023-02-08T15:35:34;9.63;;;5.73;;
20080;SDS011;10200;49.232;9.222;2023-02-08T15:38:00;11.93;;;5.80;;
20080;SDS011;10200;49.232;9.222;2023-02-08T15:40:32;10.40;;;6.23;;
20080;SDS011;10200;49.232;9.222;2023-02-08T15:45:30;11.33;;;6.90;;
20080;SDS011;10200;49.232;9.222;2023-02-08T15:47:56;11.67;;;7.43;;
20080;SDS011;10200;49.232;9.222;2023-02-08T15:50:23;10.47;;;6.23;;
20080;SDS011;10200;49.232;9.222;2023-02-08T15:52:57;11.40;;;7.17;;
20080;SDS011;10200;49.232;9.222;2023-02-08T15:55:25;9.20;;;5.90;;
20080;SDS011;10200;49.232;9.222;2023-02-08T16:00:35;11.43;;;7.27;;
20080;SDS011;10200;49.232;9.222;2023-02-08T16:03:05;13.53;;;6.77;;
20080;SDS011;10200;49.232;9.222;2023-02-08T16:05:39;11.50;;;6.93;;
20080;SDS011;10200;49.232;9.222;2023-02-08T16:08:05;13.07;;;7.07;;
20080;SDS011;10200;49.232;9.222;2023-02-08T16:10:41;11.27;;;6.40;;
20080;SDS011;10200;49.232;9.222;2023-02-08T16:13:17;11.93;;;7.00;;
20080;SDS011;10200;49.232;9.222;2023-02-08T16:15:48;11.43;;;7.07;;
20080;SDS011;10200;49.232;9.222;2023-02-08T16:20:57;12.90;;;7.97;;
20080;SDS011;10200;49.232;9.222;2023-02-08T16:23:25;13.67;;;7.73;;
20080;SDS011;10200;49.232;9.222;2023-02-08T16:26:08;14.03;;;8.43;;
20080;SDS011;10200;49.232;9.222;2023-02-08T16:28:36;12.17;;;7.70;;
20080;SDS011;10200;49.232;9.222;2023-02-08T16:31:03;17.63;;;12.13;;
20080;SDS011;10200;49.232;9.222;2023-02-08T16:33:30;22.60;;;13.87;;
20080;SDS011;10200;49.232;9.222;2023-02-08T16:35:56;14.93;;;9.47;;
20080;SDS011;10200;49.232;9.222;2023-02-08T16:38:27;16.53;;;9.97;;
20080;SDS011;10200;49.232;9.222;2023-02-08T16:40:55;17.90;;;10.73;;
20080;SDS011;10200;49.232;9.222;2023-02-08T16:48:44;19.57;;;10.53;;
20080;SDS011;10200;49.232;9.222;2023-02-08T16:51:16;18.27;;;10.57;;
20080;SDS011;10200;49.232;9.222;2023-02-08T16:53:45;18.73;;;9.87;;
20080;SDS011;10200;49.232;9.222;2023-02-08T16:56:12;17.10;;;10.00;;
20080;SDS011;10200;49.232;9.222;2023-02-08T16:58:38;15.33;;;8.53;;